38OI weather

Ronshausen Airport
Darbyville, Ohio, United States

Public forecast

Using degrees Fahrenheit for public forecast. Weather courtesy of forecast.io.

METAR (pilot weather report)

Closest report is Rickenbacker International Airport, 10.2 nm (18.9 km) NE. Retrieved 2019/05/22 14:15 UTC (0 seconds ago):

KLCK 221415Z AUTO 16009KT 10SM CLR 19/12 A3003 RMK AO2 T01930120

TAF (pilot weather forecast)

Closest forecast is Rickenbacker International Airport, 10.2 nm (18.9 km) NE. Retrieved 2019/05/22 12:39 UTC (1 hour ago):

TAF KLCK 221132Z 2212/2312 11007KT P6SM SCT100 BKN250 FM221600 20011G20KT P6SM BKN070 FM222000 21012G20KT P6SM VCTS BKN050CB FM222300 21009KT P6SM SCT050 FM230200 18005KT P6SM SCT050